Terminal Aerodrome Forecast
Issued by NWS

Home | Current Version | Previous Version | Text Only | Print | Product List | Glossary On
Versions: 1 2 3 4 5 6 7 8 9 10 11 12 13 14 15 16 17 18 19 20 21
000
FTUS46 KMTR 291909 AAA
TAFMRY
TAF AMD
KMRY 291909Z 2919/3018 34004KT P6SM SCT030 BKN040
     FM292000 28010KT P6SM SCT030 BKN040
     FM300200 30006KT 6SM BR FU BKN006 OVC040
     FM300330 25005KT 3SM BR FU OVC002
     FM300800 00000KT 1SM BR FU OVC001
     FM301530 00000KT 3SM BR FU OVC003
     FM301630 VRB03KT 6SM BR FU SCT005=

USA.gov is the U.S. government's official web portal to all federal, state and local government web resources and services.